sensor_id;sensor_type;location;lat;lon;timestamp;P1;durP1;ratioP1;P2;durP2;ratioP2
36391;SDS011;22639;42.690;23.356;2023-11-21T00:02:01;14.47;;;10.20;;
36391;SDS011;22639;42.690;23.356;2023-11-21T00:04:27;13.60;;;9.20;;
36391;SDS011;22639;42.690;23.356;2023-11-21T00:06:52;15.77;;;10.07;;
36391;SDS011;22639;42.690;23.356;2023-11-21T00:09:19;18.27;;;10.57;;
36391;SDS011;22639;42.690;23.356;2023-11-21T00:11:45;17.53;;;10.97;;
36391;SDS011;22639;42.690;23.356;2023-11-21T00:14:10;14.50;;;10.20;;
36391;SDS011;22639;42.690;23.356;2023-11-21T00:16:36;21.77;;;11.00;;
36391;SDS011;22639;42.690;23.356;2023-11-21T00:19:02;19.33;;;11.83;;
36391;SDS011;22639;42.690;23.356;2023-11-21T00:21:27;14.70;;;9.80;;
36391;SDS011;22639;42.690;23.356;2023-11-21T00:23:53;21.00;;;11.67;;
36391;SDS011;22639;42.690;23.356;2023-11-21T00:26:18;18.67;;;11.33;;
36391;SDS011;22639;42.690;23.356;2023-11-21T00:28:44;19.70;;;12.47;;
36391;SDS011;22639;42.690;23.356;2023-11-21T00:31:10;18.47;;;10.23;;
36391;SDS011;22639;42.690;23.356;2023-11-21T00:33:35;21.43;;;13.53;;
36391;SDS011;22639;42.690;23.356;2023-11-21T00:36:01;28.87;;;17.53;;
36391;SDS011;22639;42.690;23.356;2023-11-21T00:38:26;36.00;;;20.77;;
36391;SDS011;22639;42.690;23.356;2023-11-21T00:40:52;33.80;;;19.97;;
36391;SDS011;22639;42.690;23.356;2023-11-21T00:43:21;47.87;;;23.50;;
36391;SDS011;22639;42.690;23.356;2023-11-21T00:45:49;45.00;;;25.27;;
36391;SDS011;22639;42.690;23.356;2023-11-21T00:48:15;40.80;;;23.70;;
36391;SDS011;22639;42.690;23.356;2023-11-21T00:50:40;43.17;;;24.20;;
36391;SDS011;22639;42.690;23.356;2023-11-21T00:53:06;37.40;;;24.13;;
36391;SDS011;22639;42.690;23.356;2023-11-21T00:55:32;40.77;;;23.20;;
36391;SDS011;22639;42.690;23.356;2023-11-21T00:57:58;30.37;;;20.07;;
36391;SDS011;22639;42.690;23.356;2023-11-21T01:00:24;41.67;;;22.30;;
36391;SDS011;22639;42.690;23.356;2023-11-21T01:02:50;32.53;;;21.53;;
36391;SDS011;22639;42.690;23.356;2023-11-21T01:05:15;32.57;;;19.47;;
36391;SDS011;22639;42.690;23.356;2023-11-21T01:07:41;32.80;;;20.83;;
36391;SDS011;22639;42.690;23.356;2023-11-21T01:10:06;33.60;;;21.90;;
36391;SDS011;22639;42.690;23.356;2023-11-21T01:12:33;34.63;;;19.83;;
36391;SDS011;22639;42.690;23.356;2023-11-21T01:15:01;36.17;;;19.03;;
36391;SDS011;22639;42.690;23.356;2023-11-21T01:17:26;41.30;;;19.87;;
36391;SDS011;22639;42.690;23.356;2023-11-21T01:19:52;24.77;;;17.00;;
36391;SDS011;22639;42.690;23.356;2023-11-21T01:22:17;26.00;;;16.23;;
36391;SDS011;22639;42.690;23.356;2023-11-21T01:24:47;26.40;;;16.13;;
36391;SDS011;22639;42.690;23.356;2023-11-21T01:27:12;20.87;;;14.77;;
36391;SDS011;22639;42.690;23.356;2023-11-21T01:29:38;19.57;;;13.63;;
36391;SDS011;22639;42.690;23.356;2023-11-21T01:32:03;36.70;;;18.17;;
36391;SDS011;22639;42.690;23.356;2023-11-21T01:34:29;23.57;;;15.10;;
36391;SDS011;22639;42.690;23.356;2023-11-21T01:36:55;22.67;;;13.60;;
36391;SDS011;22639;42.690;23.356;2023-11-21T01:39:21;21.13;;;11.40;;
36391;SDS011;22639;42.690;23.356;2023-11-21T01:41:49;29.23;;;14.40;;
36391;SDS011;22639;42.690;23.356;2023-11-21T01:44:15;18.67;;;12.47;;
36391;SDS011;22639;42.690;23.356;2023-11-21T01:46:42;21.57;;;12.00;;
36391;SDS011;22639;42.690;23.356;2023-11-21T01:49:07;23.87;;;14.17;;
36391;SDS011;22639;42.690;23.356;2023-11-21T01:51:35;20.00;;;11.90;;
36391;SDS011;22639;42.690;23.356;2023-11-21T01:54:01;21.73;;;13.10;;
36391;SDS011;22639;42.690;23.356;2023-11-21T01:56:30;18.03;;;11.87;;
36391;SDS011;22639;42.690;23.356;2023-11-21T01:58:56;18.43;;;11.30;;
36391;SDS011;22639;42.690;23.356;2023-11-21T02:01:22;23.87;;;11.73;;
36391;SDS011;22639;42.690;23.356;2023-11-21T02:03:47;23.47;;;12.40;;
36391;SDS011;22639;42.690;23.356;2023-11-21T02:06:13;17.53;;;10.23;;
36391;SDS011;22639;42.690;23.356;2023-11-21T02:08:38;22.97;;;10.40;;
36391;SDS011;22639;42.690;23.356;2023-11-21T02:11:04;11.90;;;9.47;;
36391;SDS011;22639;42.690;23.356;2023-11-21T02:13:30;20.80;;;10.20;;
36391;SDS011;22639;42.690;23.356;2023-11-21T02:15:56;16.60;;;9.17;;
36391;SDS011;22639;42.690;23.356;2023-11-21T02:18:23;17.70;;;10.83;;
36391;SDS011;22639;42.690;23.356;2023-11-21T02:20:48;24.33;;;11.73;;
36391;SDS011;22639;42.690;23.356;2023-11-21T02:23:14;15.17;;;10.53;;
36391;SDS011;22639;42.690;23.356;2023-11-21T02:25:39;16.87;;;11.10;;
36391;SDS011;22639;42.690;23.356;2023-11-21T02:28:07;19.10;;;12.47;;
36391;SDS011;22639;42.690;23.356;2023-11-21T02:30:33;18.73;;;11.50;;
36391;SDS011;22639;42.690;23.356;2023-11-21T02:32:59;21.40;;;12.00;;
36391;SDS011;22639;42.690;23.356;2023-11-21T02:35:27;20.20;;;11.87;;
36391;SDS011;22639;42.690;23.356;2023-11-21T02:37:53;20.07;;;9.77;;
36391;SDS011;22639;42.690;23.356;2023-11-21T02:40:19;19.10;;;12.07;;
36391;SDS011;22639;42.690;23.356;2023-11-21T02:42:49;20.73;;;12.07;;
36391;SDS011;22639;42.690;23.356;2023-11-21T02:45:21;17.53;;;10.73;;
36391;SDS011;22639;42.690;23.356;2023-11-21T02:47:47;22.60;;;13.00;;
36391;SDS011;22639;42.690;23.356;2023-11-21T02:50:14;21.30;;;12.73;;
36391;SDS011;22639;42.690;23.356;2023-11-21T02:52:39;24.83;;;14.77;;
36391;SDS011;22639;42.690;23.356;2023-11-21T02:55:05;25.57;;;13.60;;
36391;SDS011;22639;42.690;23.356;2023-11-21T02:57:32;18.63;;;11.60;;
36391;SDS011;22639;42.690;23.356;2023-11-21T02:59:58;21.10;;;10.70;;
36391;SDS011;22639;42.690;23.356;2023-11-21T03:02:25;13.63;;;11.17;;
36391;SDS011;22639;42.690;23.356;2023-11-21T03:04:51;15.37;;;10.53;;
36391;SDS011;22639;42.690;23.356;2023-11-21T03:07:17;18.17;;;9.80;;
36391;SDS011;22639;42.690;23.356;2023-11-21T03:09:46;17.90;;;10.73;;
36391;SDS011;22639;42.690;23.356;2023-11-21T03:12:12;14.27;;;11.63;;
36391;SDS011;22639;42.690;23.356;2023-11-21T03:14:38;17.40;;;10.20;;
36391;SDS011;22639;42.690;23.356;2023-11-21T03:17:04;19.57;;;10.40;;
36391;SDS011;22639;42.690;23.356;2023-11-21T03:19:30;16.87;;;11.97;;
36391;SDS011;22639;42.690;23.356;2023-11-21T03:21:56;18.20;;;11.60;;
36391;SDS011;22639;42.690;23.356;2023-11-21T03:24:21;25.77;;;18.50;;
36391;SDS011;22639;42.690;23.356;2023-11-21T03:26:47;41.97;;;27.33;;
36391;SDS011;22639;42.690;23.356;2023-11-21T03:29:13;17.17;;;10.03;;
36391;SDS011;22639;42.690;23.356;2023-11-21T03:31:40;17.60;;;11.37;;
36391;SDS011;22639;42.690;23.356;2023-11-21T03:34:06;14.93;;;10.40;;
36391;SDS011;22639;42.690;23.356;2023-11-21T03:36:31;15.90;;;8.67;;
36391;SDS011;22639;42.690;23.356;2023-11-21T03:38:57;10.20;;;7.67;;
36391;SDS011;22639;42.690;23.356;2023-11-21T03:41:23;10.17;;;7.03;;
36391;SDS011;22639;42.690;23.356;2023-11-21T03:43:48;17.27;;;8.37;;
36391;SDS011;22639;42.690;23.356;2023-11-21T03:46:14;18.03;;;9.93;;
36391;SDS011;22639;42.690;23.356;2023-11-21T03:48:39;14.30;;;8.93;;
36391;SDS011;22639;42.690;23.356;2023-11-21T03:51:05;17.60;;;9.87;;
36391;SDS011;22639;42.690;23.356;2023-11-21T03:53:31;15.23;;;9.23;;
36391;SDS011;22639;42.690;23.356;2023-11-21T03:55:57;14.93;;;9.17;;
36391;SDS011;22639;42.690;23.356;2023-11-21T03:58:23;14.27;;;9.43;;
36391;SDS011;22639;42.690;23.356;2023-11-21T04:00:48;14.57;;;8.30;;
36391;SDS011;22639;42.690;23.356;2023-11-21T04:03:16;13.43;;;9.73;;
36391;SDS011;22639;42.690;23.356;2023-11-21T04:05:42;18.47;;;10.70;;
36391;SDS011;22639;42.690;23.356;2023-11-21T04:08:07;10.67;;;8.77;;
36391;SDS011;22639;42.690;23.356;2023-11-21T04:10:33;14.47;;;9.60;;
36391;SDS011;22639;42.690;23.356;2023-11-21T04:12:58;17.57;;;11.03;;
36391;SDS011;22639;42.690;23.356;2023-11-21T04:15:25;19.57;;;11.83;;
36391;SDS011;22639;42.690;23.356;2023-11-21T04:17:51;16.07;;;11.00;;
36391;SDS011;22639;42.690;23.356;2023-11-21T04:20:16;17.67;;;12.13;;
36391;SDS011;22639;42.690;23.356;2023-11-21T04:22:42;16.63;;;11.13;;
36391;SDS011;22639;42.690;23.356;2023-11-21T04:25:13;18.67;;;11.57;;
36391;SDS011;22639;42.690;23.356;2023-11-21T04:27:40;14.50;;;7.47;;
36391;SDS011;22639;42.690;23.356;2023-11-21T04:30:09;12.60;;;8.40;;
36391;SDS011;22639;42.690;23.356;2023-11-21T04:32:35;12.37;;;8.13;;
36391;SDS011;22639;42.690;23.356;2023-11-21T04:35:01;14.00;;;9.97;;
36391;SDS011;22639;42.690;23.356;2023-11-21T04:37:27;13.97;;;9.80;;
36391;SDS011;22639;42.690;23.356;2023-11-21T04:39:52;14.00;;;9.20;;
36391;SDS011;22639;42.690;23.356;2023-11-21T04:42:17;16.37;;;7.97;;
36391;SDS011;22639;42.690;23.356;2023-11-21T04:44:43;23.10;;;11.40;;
36391;SDS011;22639;42.690;23.356;2023-11-21T04:47:09;18.07;;;9.20;;
36391;SDS011;22639;42.690;23.356;2023-11-21T04:49:35;13.93;;;9.10;;
36391;SDS011;22639;42.690;23.356;2023-11-21T04:52:02;14.03;;;9.33;;
36391;SDS011;22639;42.690;23.356;2023-11-21T04:54:29;13.47;;;9.40;;
36391;SDS011;22639;42.690;23.356;2023-11-21T04:56:55;13.17;;;9.57;;
36391;SDS011;22639;42.690;23.356;2023-11-21T04:59:23;15.70;;;8.60;;
36391;SDS011;22639;42.690;23.356;2023-11-21T05:01:52;15.30;;;9.27;;
36391;SDS011;22639;42.690;23.356;2023-11-21T05:04:19;17.00;;;11.57;;
36391;SDS011;22639;42.690;23.356;2023-11-21T05:06:44;21.93;;;17.13;;
36391;SDS011;22639;42.690;23.356;2023-11-21T05:09:11;30.50;;;17.43;;
36391;SDS011;22639;42.690;23.356;2023-11-21T05:11:37;32.07;;;16.90;;
36391;SDS011;22639;42.690;23.356;2023-11-21T05:14:03;24.23;;;14.77;;
36391;SDS011;22639;42.690;23.356;2023-11-21T05:16:29;27.27;;;17.00;;
36391;SDS011;22639;42.690;23.356;2023-11-21T05:18:54;34.53;;;19.13;;
36391;SDS011;22639;42.690;23.356;2023-11-21T05:21:25;36.87;;;20.50;;
36391;SDS011;22639;42.690;23.356;2023-11-21T05:23:51;28.23;;;18.17;;
36391;SDS011;22639;42.690;23.356;2023-11-21T05:26:16;37.93;;;18.67;;
36391;SDS011;22639;42.690;23.356;2023-11-21T05:28:42;31.30;;;18.57;;
36391;SDS011;22639;42.690;23.356;2023-11-21T05:31:07;28.80;;;17.40;;
36391;SDS011;22639;42.690;23.356;2023-11-21T05:33:33;33.57;;;19.27;;
36391;SDS011;22639;42.690;23.356;2023-11-21T05:35:58;43.40;;;19.13;;
36391;SDS011;22639;42.690;23.356;2023-11-21T05:38:24;31.70;;;17.80;;
36391;SDS011;22639;42.690;23.356;2023-11-21T05:40:49;33.07;;;19.47;;
36391;SDS011;22639;42.690;23.356;2023-11-21T05:43:15;31.20;;;19.00;;
36391;SDS011;22639;42.690;23.356;2023-11-21T05:45:40;30.00;;;19.70;;
36391;SDS011;22639;42.690;23.356;2023-11-21T05:48:06;31.53;;;22.87;;
36391;SDS011;22639;42.690;23.356;2023-11-21T05:50:31;28.37;;;19.07;;
36391;SDS011;22639;42.690;23.356;2023-11-21T05:52:57;58.87;;;32.97;;
36391;SDS011;22639;42.690;23.356;2023-11-21T05:55:25;29.03;;;22.77;;
36391;SDS011;22639;42.690;23.356;2023-11-21T05:57:50;33.53;;;19.23;;
36391;SDS011;22639;42.690;23.356;2023-11-21T06:00:16;23.67;;;15.07;;
36391;SDS011;22639;42.690;23.356;2023-11-21T06:02:50;17.27;;;11.07;;
36391;SDS011;22639;42.690;23.356;2023-11-21T06:05:21;21.17;;;12.50;;
36391;SDS011;22639;42.690;23.356;2023-11-21T06:07:48;12.00;;;10.20;;
36391;SDS011;22639;42.690;23.356;2023-11-21T06:10:14;19.00;;;12.00;;
36391;SDS011;22639;42.690;23.356;2023-11-21T06:15:37;15.57;;;9.63;;
36391;SDS011;22639;42.690;23.356;2023-11-21T06:18:09;13.87;;;10.30;;
36391;SDS011;22639;42.690;23.356;2023-11-21T06:20:35;19.57;;;11.57;;
36391;SDS011;22639;42.690;23.356;2023-11-21T06:23:02;17.87;;;10.70;;
36391;SDS011;22639;42.690;23.356;2023-11-21T06:25:28;15.23;;;11.43;;
36391;SDS011;22639;42.690;23.356;2023-11-21T06:27:54;23.67;;;12.27;;
36391;SDS011;22639;42.690;23.356;2023-11-21T06:30:20;19.97;;;15.17;;
36391;SDS011;22639;42.690;23.356;2023-11-21T06:32:46;21.53;;;12.83;;
36391;SDS011;22639;42.690;23.356;2023-11-21T06:35:12;22.97;;;15.23;;
36391;SDS011;22639;42.690;23.356;2023-11-21T06:37:38;15.30;;;11.23;;
36391;SDS011;22639;42.690;23.356;2023-11-21T06:40:04;14.10;;;9.90;;
36391;SDS011;22639;42.690;23.356;2023-11-21T06:42:31;14.47;;;10.73;;
36391;SDS011;22639;42.690;23.356;2023-11-21T06:44:56;12.53;;;10.20;;
36391;SDS011;22639;42.690;23.356;2023-11-21T06:47:25;16.63;;;12.10;;
36391;SDS011;22639;42.690;23.356;2023-11-21T06:49:51;20.37;;;11.37;;
36391;SDS011;22639;42.690;23.356;2023-11-21T06:52:18;21.50;;;12.50;;
36391;SDS011;22639;42.690;23.356;2023-11-21T06:54:44;18.83;;;11.30;;
36391;SDS011;22639;42.690;23.356;2023-11-21T06:57:10;15.40;;;11.13;;
36391;SDS011;22639;42.690;23.356;2023-11-21T06:59:36;15.30;;;11.80;;
36391;SDS011;22639;42.690;23.356;2023-11-21T07:02:02;16.70;;;11.47;;
36391;SDS011;22639;42.690;23.356;2023-11-21T07:04:27;17.90;;;10.47;;
36391;SDS011;22639;42.690;23.356;2023-11-21T07:06:53;17.87;;;11.13;;
36391;SDS011;22639;42.690;23.356;2023-11-21T07:09:19;16.90;;;11.43;;
36391;SDS011;22639;42.690;23.356;2023-11-21T07:11:48;18.60;;;11.30;;
36391;SDS011;22639;42.690;23.356;2023-11-21T07:14:15;20.63;;;13.80;;
36391;SDS011;22639;42.690;23.356;2023-11-21T07:16:42;19.23;;;14.53;;
36391;SDS011;22639;42.690;23.356;2023-11-21T07:19:07;19.27;;;14.00;;
36391;SDS011;22639;42.690;23.356;2023-11-21T07:21:33;21.03;;;15.17;;
36391;SDS011;22639;42.690;23.356;2023-11-21T07:24:03;20.30;;;15.17;;
36391;SDS011;22639;42.690;23.356;2023-11-21T07:26:29;18.83;;;14.87;;
36391;SDS011;22639;42.690;23.356;2023-11-21T07:28:55;27.47;;;16.00;;
36391;SDS011;22639;42.690;23.356;2023-11-21T07:31:21;21.37;;;14.23;;
36391;SDS011;22639;42.690;23.356;2023-11-21T07:33:47;19.07;;;14.90;;
36391;SDS011;22639;42.690;23.356;2023-11-21T07:36:13;14.13;;;12.33;;
36391;SDS011;22639;42.690;23.356;2023-11-21T07:38:39;20.73;;;13.15;;
36391;SDS011;22639;42.690;23.356;2023-11-21T07:41:05;19.40;;;13.47;;
36391;SDS011;22639;42.690;23.356;2023-11-21T07:43:32;22.30;;;15.43;;
36391;SDS011;22639;42.690;23.356;2023-11-21T07:46:00;33.13;;;20.43;;
36391;SDS011;22639;42.690;23.356;2023-11-21T07:48:32;25.97;;;19.00;;
36391;SDS011;22639;42.690;23.356;2023-11-21T07:50:58;26.77;;;20.03;;
36391;SDS011;22639;42.690;23.356;2023-11-21T07:53:24;30.93;;;18.40;;
36391;SDS011;22639;42.690;23.356;2023-11-21T07:56:02;30.33;;;18.73;;
36391;SDS011;22639;42.690;23.356;2023-11-21T07:58:29;27.47;;;19.00;;
36391;SDS011;22639;42.690;23.356;2023-11-21T08:00:56;24.17;;;16.13;;
36391;SDS011;22639;42.690;23.356;2023-11-21T08:03:21;24.97;;;18.33;;
36391;SDS011;22639;42.690;23.356;2023-11-21T08:05:47;30.40;;;18.37;;
36391;SDS011;22639;42.690;23.356;2023-11-21T08:08:12;25.57;;;16.47;;
36391;SDS011;22639;42.690;23.356;2023-11-21T08:10:38;25.17;;;18.33;;
36391;SDS011;22639;42.690;23.356;2023-11-21T08:13:07;24.60;;;18.00;;
36391;SDS011;22639;42.690;23.356;2023-11-21T08:15:34;27.77;;;17.43;;
36391;SDS011;22639;42.690;23.356;2023-11-21T08:18:01;26.53;;;17.43;;
36391;SDS011;22639;42.690;23.356;2023-11-21T08:20:27;27.23;;;18.13;;
36391;SDS011;22639;42.690;23.356;2023-11-21T08:22:54;32.77;;;19.83;;
36391;SDS011;22639;42.690;23.356;2023-11-21T08:25:22;32.33;;;20.60;;
36391;SDS011;22639;42.690;23.356;2023-11-21T08:27:47;26.90;;;19.00;;
36391;SDS011;22639;42.690;23.356;2023-11-21T08:30:13;34.97;;;20.23;;
36391;SDS011;22639;42.690;23.356;2023-11-21T08:32:39;30.63;;;19.30;;
36391;SDS011;22639;42.690;23.356;2023-11-21T08:35:07;37.40;;;18.87;;
36391;SDS011;22639;42.690;23.356;2023-11-21T08:37:33;34.07;;;21.23;;
36391;SDS011;22639;42.690;23.356;2023-11-21T08:40:08;34.97;;;21.83;;
36391;SDS011;22639;42.690;23.356;2023-11-21T08:42:41;29.03;;;20.70;;
36391;SDS011;22639;42.690;23.356;2023-11-21T08:45:08;70.20;;;43.63;;
36391;SDS011;22639;42.690;23.356;2023-11-21T08:47:34;48.80;;;28.17;;
36391;SDS011;22639;42.690;23.356;2023-11-21T08:50:02;38.63;;;27.57;;
36391;SDS011;22639;42.690;23.356;2023-11-21T08:52:28;42.70;;;28.20;;
36391;SDS011;22639;42.690;23.356;2023-11-21T08:54:53;37.73;;;22.83;;
36391;SDS011;22639;42.690;23.356;2023-11-21T08:57:25;33.83;;;22.83;;
36391;SDS011;22639;42.690;23.356;2023-11-21T08:59:51;41.10;;;25.20;;
36391;SDS011;22639;42.690;23.356;2023-11-21T09:02:20;39.63;;;26.90;;
36391;SDS011;22639;42.690;23.356;2023-11-21T09:04:51;37.87;;;26.23;;
36391;SDS011;22639;42.690;23.356;2023-11-21T09:07:18;42.47;;;26.20;;
36391;SDS011;22639;42.690;23.356;2023-11-21T09:09:45;38.17;;;25.13;;
36391;SDS011;22639;42.690;23.356;2023-11-21T09:12:14;38.63;;;24.77;;
36391;SDS011;22639;42.690;23.356;2023-11-21T09:14:40;41.30;;;27.20;;
36391;SDS011;22639;42.690;23.356;2023-11-21T09:17:07;41.07;;;25.27;;
36391;SDS011;22639;42.690;23.356;2023-11-21T09:19:39;36.13;;;25.43;;
36391;SDS011;22639;42.690;23.356;2023-11-21T09:22:05;40.67;;;25.73;;
36391;SDS011;22639;42.690;23.356;2023-11-21T09:24:31;35.43;;;23.33;;
36391;SDS011;22639;42.690;23.356;2023-11-21T09:26:57;36.53;;;23.53;;
36391;SDS011;22639;42.690;23.356;2023-11-21T09:29:23;33.77;;;23.70;;
36391;SDS011;22639;42.690;23.356;2023-11-21T09:31:48;33.27;;;21.83;;
36391;SDS011;22639;42.690;23.356;2023-11-21T09:34:16;26.93;;;19.63;;
36391;SDS011;22639;42.690;23.356;2023-11-21T09:36:44;35.70;;;22.87;;
36391;SDS011;22639;42.690;23.356;2023-11-21T09:39:10;31.93;;;20.80;;
36391;SDS011;22639;42.690;23.356;2023-11-21T09:41:46;35.17;;;23.17;;
36391;SDS011;22639;42.690;23.356;2023-11-21T09:44:21;37.27;;;21.77;;
36391;SDS011;22639;42.690;23.356;2023-11-21T09:46:54;30.23;;;19.77;;
36391;SDS011;22639;42.690;23.356;2023-11-21T09:49:24;30.47;;;21.17;;
36391;SDS011;22639;42.690;23.356;2023-11-21T09:51:55;29.27;;;20.90;;
36391;SDS011;22639;42.690;23.356;2023-11-21T09:54:24;23.80;;;16.93;;
36391;SDS011;22639;42.690;23.356;2023-11-21T09:56:50;20.03;;;14.97;;
36391;SDS011;22639;42.690;23.356;2023-11-21T09:59:16;20.53;;;15.53;;
36391;SDS011;22639;42.690;23.356;2023-11-21T10:01:42;21.67;;;14.47;;
36391;SDS011;22639;42.690;23.356;2023-11-21T10:04:08;23.93;;;15.63;;
36391;SDS011;22639;42.690;23.356;2023-11-21T10:06:40;19.63;;;13.03;;
36391;SDS011;22639;42.690;23.356;2023-11-21T10:09:15;16.47;;;13.20;;
36391;SDS011;22639;42.690;23.356;2023-11-21T10:11:41;17.83;;;12.70;;
36391;SDS011;22639;42.690;23.356;2023-11-21T10:14:10;16.60;;;13.13;;
36391;SDS011;22639;42.690;23.356;2023-11-21T10:16:38;22.13;;;12.10;;
36391;SDS011;22639;42.690;23.356;2023-11-21T10:19:04;12.48;;;10.60;;
36391;SDS011;22639;42.690;23.356;2023-11-21T10:21:33;15.80;;;11.10;;
36391;SDS011;22639;42.690;23.356;2023-11-21T10:23:59;15.55;;;12.27;;
36391;SDS011;22639;42.690;23.356;2023-11-21T10:26:26;17.10;;;12.25;;
36391;SDS011;22639;42.690;23.356;2023-11-21T10:29:00;14.85;;;10.82;;
36391;SDS011;22639;42.690;23.356;2023-11-21T10:31:28;14.13;;;11.13;;
36391;SDS011;22639;42.690;23.356;2023-11-21T10:36:42;18.08;;;11.85;;
36391;SDS011;22639;42.690;23.356;2023-11-21T10:39:08;13.40;;;10.18;;
36391;SDS011;22639;42.690;23.356;2023-11-21T10:41:34;19.55;;;10.90;;
36391;SDS011;22639;42.690;23.356;2023-11-21T10:44:00;16.73;;;10.73;;
36391;SDS011;22639;42.690;23.356;2023-11-21T10:46:29;13.10;;;10.27;;
36391;SDS011;22639;42.690;23.356;2023-11-21T10:48:55;12.18;;;10.00;;
36391;SDS011;22639;42.690;23.356;2023-11-21T10:51:22;21.42;;;13.00;;
36391;SDS011;22639;42.690;23.356;2023-11-21T10:53:51;18.80;;;13.02;;
36391;SDS011;22639;42.690;23.356;2023-11-21T10:56:18;19.73;;;13.40;;
36391;SDS011;22639;42.690;23.356;2023-11-21T10:58:46;17.17;;;12.38;;
36391;SDS011;22639;42.690;23.356;2023-11-21T11:01:15;19.10;;;12.45;;
36391;SDS011;22639;42.690;23.356;2023-11-21T11:03:44;16.17;;;11.43;;
36391;SDS011;22639;42.690;23.356;2023-11-21T11:06:10;21.30;;;11.13;;
36391;SDS011;22639;42.690;23.356;2023-11-21T11:08:37;18.90;;;11.47;;
36391;SDS011;22639;42.690;23.356;2023-11-21T11:11:05;19.93;;;12.07;;
36391;SDS011;22639;42.690;23.356;2023-11-21T11:13:31;15.35;;;11.32;;
36391;SDS011;22639;42.690;23.356;2023-11-21T11:16:00;17.17;;;11.60;;
36391;SDS011;22639;42.690;23.356;2023-11-21T11:18:29;18.13;;;12.03;;
36391;SDS011;22639;42.690;23.356;2023-11-21T11:21:42;14.87;;;10.70;;
36391;SDS011;22639;42.690;23.356;2023-11-21T11:26:37;18.03;;;12.27;;
36391;SDS011;22639;42.690;23.356;2023-11-21T11:34:46;18.30;;;11.47;;
36391;SDS011;22639;42.690;23.356;2023-11-21T11:37:18;15.90;;;11.87;;
36391;SDS011;22639;42.690;23.356;2023-11-21T11:39:44;14.17;;;10.53;;
36391;SDS011;22639;42.690;23.356;2023-11-21T11:42:13;19.97;;;13.17;;
36391;SDS011;22639;42.690;23.356;2023-11-21T11:47:21;21.53;;;13.00;;
36391;SDS011;22639;42.690;23.356;2023-11-21T11:55:19;20.23;;;12.57;;
36391;SDS011;22639;42.690;23.356;2023-11-21T11:57:49;19.57;;;13.23;;
36391;SDS011;22639;42.690;23.356;2023-11-21T12:00:20;21.10;;;13.87;;
36391;SDS011;22639;42.690;23.356;2023-11-21T12:02:57;26.47;;;14.87;;
36391;SDS011;22639;42.690;23.356;2023-11-21T12:05:25;24.57;;;14.83;;
36391;SDS011;22639;42.690;23.356;2023-11-21T12:07:54;27.67;;;19.27;;
36391;SDS011;22639;42.690;23.356;2023-11-21T12:10:26;28.87;;;19.73;;
36391;SDS011;22639;42.690;23.356;2023-11-21T12:12:55;33.23;;;20.70;;
36391;SDS011;22639;42.690;23.356;2023-11-21T12:15:22;31.60;;;21.13;;
36391;SDS011;22639;42.690;23.356;2023-11-21T12:17:48;33.70;;;21.70;;
36391;SDS011;22639;42.690;23.356;2023-11-21T12:20:15;36.47;;;22.60;;
36391;SDS011;22639;42.690;23.356;2023-11-21T12:22:47;36.63;;;22.60;;
36391;SDS011;22639;42.690;23.356;2023-11-21T12:25:14;30.63;;;22.30;;
36391;SDS011;22639;42.690;23.356;2023-11-21T12:27:44;32.13;;;21.10;;
36391;SDS011;22639;42.690;23.356;2023-11-21T12:30:12;31.47;;;21.33;;
36391;SDS011;22639;42.690;23.356;2023-11-21T12:32:42;31.60;;;18.77;;
36391;SDS011;22639;42.690;23.356;2023-11-21T12:35:09;31.03;;;20.13;;
36391;SDS011;22639;42.690;23.356;2023-11-21T12:37:36;29.27;;;19.67;;
36391;SDS011;22639;42.690;23.356;2023-11-21T12:40:07;35.63;;;19.77;;
36391;SDS011;22639;42.690;23.356;2023-11-21T12:42:33;29.43;;;18.33;;
36391;SDS011;22639;42.690;23.356;2023-11-21T12:45:10;30.30;;;17.50;;
36391;SDS011;22639;42.690;23.356;2023-11-21T12:47:42;30.83;;;17.30;;
36391;SDS011;22639;42.690;23.356;2023-11-21T12:50:09;28.03;;;18.70;;
36391;SDS011;22639;42.690;23.356;2023-11-21T12:52:46;32.33;;;16.83;;
36391;SDS011;22639;42.690;23.356;2023-11-21T12:55:16;30.90;;;16.47;;
36391;SDS011;22639;42.690;23.356;2023-11-21T12:57:47;31.63;;;18.47;;
36391;SDS011;22639;42.690;23.356;2023-11-21T13:00:17;28.13;;;17.80;;
36391;SDS011;22639;42.690;23.356;2023-11-21T13:02:56;23.47;;;15.10;;
36391;SDS011;22639;42.690;23.356;2023-11-21T13:05:27;25.80;;;16.53;;
36391;SDS011;22639;42.690;23.356;2023-11-21T13:08:00;29.03;;;17.43;;
36391;SDS011;22639;42.690;23.356;2023-11-21T13:10:29;29.00;;;15.63;;
36391;SDS011;22639;42.690;23.356;2023-11-21T13:12:57;34.43;;;17.80;;
36391;SDS011;22639;42.690;23.356;2023-11-21T13:15:27;29.47;;;16.23;;
36391;SDS011;22639;42.690;23.356;2023-11-21T13:17:53;28.03;;;16.83;;
36391;SDS011;22639;42.690;23.356;2023-11-21T13:20:19;24.87;;;15.80;;
36391;SDS011;22639;42.690;23.356;2023-11-21T13:22:57;23.90;;;15.87;;
36391;SDS011;22639;42.690;23.356;2023-11-21T13:25:27;28.27;;;15.83;;
36391;SDS011;22639;42.690;23.356;2023-11-21T13:27:59;28.63;;;16.93;;
36391;SDS011;22639;42.690;23.356;2023-11-21T13:30:28;31.30;;;19.23;;
36391;SDS011;22639;42.690;23.356;2023-11-21T13:33:00;28.03;;;17.67;;
36391;SDS011;22639;42.690;23.356;2023-11-21T13:35:27;33.23;;;21.07;;
36391;SDS011;22639;42.690;23.356;2023-11-21T13:38:17;30.93;;;18.93;;
36391;SDS011;22639;42.690;23.356;2023-11-21T13:40:51;38.47;;;20.47;;
36391;SDS011;22639;42.690;23.356;2023-11-21T13:43:19;34.50;;;21.87;;
36391;SDS011;22639;42.690;23.356;2023-11-21T13:45:47;40.60;;;21.87;;
36391;SDS011;22639;42.690;23.356;2023-11-21T13:48:23;33.90;;;21.53;;
36391;SDS011;22639;42.690;23.356;2023-11-21T13:50:56;36.97;;;21.70;;
36391;SDS011;22639;42.690;23.356;2023-11-21T13:53:35;33.33;;;22.00;;
36391;SDS011;22639;42.690;23.356;2023-11-21T13:56:02;34.77;;;20.40;;
36391;SDS011;22639;42.690;23.356;2023-11-21T13:58:28;35.37;;;21.77;;
36391;SDS011;22639;42.690;23.356;2023-11-21T14:01:10;38.20;;;23.93;;
36391;SDS011;22639;42.690;23.356;2023-11-21T14:03:58;38.13;;;21.57;;
36391;SDS011;22639;42.690;23.356;2023-11-21T14:06:43;33.67;;;21.43;;
36391;SDS011;22639;42.690;23.356;2023-11-21T14:09:17;39.30;;;23.90;;
36391;SDS011;22639;42.690;23.356;2023-11-21T14:12:00;37.93;;;21.43;;
36391;SDS011;22639;42.690;23.356;2023-11-21T14:14:31;36.87;;;23.57;;
36391;SDS011;22639;42.690;23.356;2023-11-21T14:16:57;45.97;;;25.20;;
36391;SDS011;22639;42.690;23.356;2023-11-21T14:19:26;36.20;;;23.67;;
36391;SDS011;22639;42.690;23.356;2023-11-21T14:21:56;40.03;;;23.90;;
36391;SDS011;22639;42.690;23.356;2023-11-21T14:24:21;42.00;;;24.47;;
36391;SDS011;22639;42.690;23.356;2023-11-21T14:26:49;37.50;;;25.10;;
36391;SDS011;22639;42.690;23.356;2023-11-21T14:29:16;43.07;;;24.30;;
36391;SDS011;22639;42.690;23.356;2023-11-21T14:31:45;45.00;;;22.50;;
36391;SDS011;22639;42.690;23.356;2023-11-21T14:34:11;35.33;;;23.17;;
36391;SDS011;22639;42.690;23.356;2023-11-21T14:36:37;38.67;;;22.60;;